sensor_id;sensor_type;location;lat;lon;timestamp;P1;durP1;ratioP1;P2;durP2;ratioP2
29908;SDS011;36247;51.952;6.146;2023-04-16T00:00:51;32.42;;;10.95;;
29908;SDS011;36247;51.952;6.146;2023-04-16T00:03:17;32.65;;;11.60;;
29908;SDS011;36247;51.952;6.146;2023-04-16T00:05:42;29.45;;;11.32;;
29908;SDS011;36247;51.952;6.146;2023-04-16T00:08:09;27.00;;;11.05;;
29908;SDS011;36247;51.952;6.146;2023-04-16T00:10:34;29.80;;;11.82;;
29908;SDS011;36247;51.952;6.146;2023-04-16T00:13:01;36.97;;;12.02;;
29908;SDS011;36247;51.952;6.146;2023-04-16T00:15:27;31.33;;;12.23;;
29908;SDS011;36247;51.952;6.146;2023-04-16T00:17:52;35.58;;;12.07;;
29908;SDS011;36247;51.952;6.146;2023-04-16T00:20:18;31.73;;;11.82;;
29908;SDS011;36247;51.952;6.146;2023-04-16T00:22:44;34.20;;;13.70;;
29908;SDS011;36247;51.952;6.146;2023-04-16T00:25:10;32.08;;;12.82;;
29908;SDS011;36247;51.952;6.146;2023-04-16T00:27:36;33.83;;;12.63;;
29908;SDS011;36247;51.952;6.146;2023-04-16T00:30:05;34.42;;;12.40;;
29908;SDS011;36247;51.952;6.146;2023-04-16T00:32:32;28.65;;;13.00;;
29908;SDS011;36247;51.952;6.146;2023-04-16T00:34:57;29.23;;;12.95;;
29908;SDS011;36247;51.952;6.146;2023-04-16T00:37:23;28.27;;;13.50;;
29908;SDS011;36247;51.952;6.146;2023-04-16T00:39:49;30.25;;;12.60;;
29908;SDS011;36247;51.952;6.146;2023-04-16T00:42:14;36.60;;;13.13;;
29908;SDS011;36247;51.952;6.146;2023-04-16T00:44:40;29.20;;;12.15;;
29908;SDS011;36247;51.952;6.146;2023-04-16T00:47:06;22.45;;;12.20;;
29908;SDS011;36247;51.952;6.146;2023-04-16T00:49:32;33.63;;;13.40;;
29908;SDS011;36247;51.952;6.146;2023-04-16T00:51:58;24.75;;;12.02;;
29908;SDS011;36247;51.952;6.146;2023-04-16T00:54:26;33.10;;;13.43;;
29908;SDS011;36247;51.952;6.146;2023-04-16T00:56:53;27.15;;;12.68;;
29908;SDS011;36247;51.952;6.146;2023-04-16T00:59:18;28.58;;;12.27;;
29908;SDS011;36247;51.952;6.146;2023-04-16T01:01:44;28.58;;;13.65;;
29908;SDS011;36247;51.952;6.146;2023-04-16T01:04:09;31.10;;;12.45;;
29908;SDS011;36247;51.952;6.146;2023-04-16T01:06:35;41.97;;;14.27;;
29908;SDS011;36247;51.952;6.146;2023-04-16T01:09:01;31.90;;;12.73;;
29908;SDS011;36247;51.952;6.146;2023-04-16T01:11:27;36.20;;;15.02;;
29908;SDS011;36247;51.952;6.146;2023-04-16T01:13:53;29.20;;;12.90;;
29908;SDS011;36247;51.952;6.146;2023-04-16T01:16:19;32.80;;;14.70;;
29908;SDS011;36247;51.952;6.146;2023-04-16T01:18:45;33.30;;;13.63;;
29908;SDS011;36247;51.952;6.146;2023-04-16T01:21:10;35.92;;;14.57;;
29908;SDS011;36247;51.952;6.146;2023-04-16T01:23:36;36.90;;;14.75;;
29908;SDS011;36247;51.952;6.146;2023-04-16T01:26:03;32.30;;;14.95;;
29908;SDS011;36247;51.952;6.146;2023-04-16T01:28:29;37.85;;;15.32;;
29908;SDS011;36247;51.952;6.146;2023-04-16T01:30:55;40.28;;;14.07;;
29908;SDS011;36247;51.952;6.146;2023-04-16T01:33:41;38.38;;;15.63;;
29908;SDS011;36247;51.952;6.146;2023-04-16T01:36:09;36.33;;;14.57;;
29908;SDS011;36247;51.952;6.146;2023-04-16T01:38:35;36.40;;;15.20;;
29908;SDS011;36247;51.952;6.146;2023-04-16T01:41:01;49.92;;;17.20;;
29908;SDS011;36247;51.952;6.146;2023-04-16T01:43:27;40.20;;;16.52;;
29908;SDS011;36247;51.952;6.146;2023-04-16T01:45:57;39.85;;;17.20;;
29908;SDS011;36247;51.952;6.146;2023-04-16T01:48:35;50.50;;;17.50;;
29908;SDS011;36247;51.952;6.146;2023-04-16T01:51:01;41.47;;;16.92;;
29908;SDS011;36247;51.952;6.146;2023-04-16T01:53:29;41.40;;;16.95;;
29908;SDS011;36247;51.952;6.146;2023-04-16T01:55:55;40.22;;;16.08;;
29908;SDS011;36247;51.952;6.146;2023-04-16T01:58:20;41.17;;;17.05;;
29908;SDS011;36247;51.952;6.146;2023-04-16T02:00:47;40.55;;;17.98;;
29908;SDS011;36247;51.952;6.146;2023-04-16T02:03:12;47.33;;;19.25;;
29908;SDS011;36247;51.952;6.146;2023-04-16T02:05:42;52.60;;;20.02;;
29908;SDS011;36247;51.952;6.146;2023-04-16T02:08:08;44.05;;;18.55;;
29908;SDS011;36247;51.952;6.146;2023-04-16T02:10:33;35.63;;;17.05;;
29908;SDS011;36247;51.952;6.146;2023-04-16T02:12:59;45.63;;;18.63;;
29908;SDS011;36247;51.952;6.146;2023-04-16T02:15:25;40.33;;;16.83;;
29908;SDS011;36247;51.952;6.146;2023-04-16T02:17:51;43.80;;;17.02;;
29908;SDS011;36247;51.952;6.146;2023-04-16T02:20:21;42.75;;;18.70;;
29908;SDS011;36247;51.952;6.146;2023-04-16T02:22:52;41.42;;;18.02;;
29908;SDS011;36247;51.952;6.146;2023-04-16T02:25:20;41.05;;;18.52;;
29908;SDS011;36247;51.952;6.146;2023-04-16T02:27:48;40.65;;;18.58;;
29908;SDS011;36247;51.952;6.146;2023-04-16T02:30:37;47.67;;;18.48;;
29908;SDS011;36247;51.952;6.146;2023-04-16T02:33:05;52.33;;;19.05;;
29908;SDS011;36247;51.952;6.146;2023-04-16T02:35:33;46.63;;;18.17;;
29908;SDS011;36247;51.952;6.146;2023-04-16T02:37:59;51.30;;;19.98;;
29908;SDS011;36247;51.952;6.146;2023-04-16T02:40:27;41.65;;;17.92;;
29908;SDS011;36247;51.952;6.146;2023-04-16T02:42:53;46.47;;;19.30;;
29908;SDS011;36247;51.952;6.146;2023-04-16T02:45:19;45.15;;;17.92;;
29908;SDS011;36247;51.952;6.146;2023-04-16T02:47:46;41.45;;;19.23;;
29908;SDS011;36247;51.952;6.146;2023-04-16T02:50:12;46.67;;;19.92;;
29908;SDS011;36247;51.952;6.146;2023-04-16T02:52:38;45.28;;;18.80;;
29908;SDS011;36247;51.952;6.146;2023-04-16T02:55:05;44.75;;;20.85;;
29908;SDS011;36247;51.952;6.146;2023-04-16T02:57:32;46.65;;;20.85;;
29908;SDS011;36247;51.952;6.146;2023-04-16T02:59:58;50.80;;;20.88;;
29908;SDS011;36247;51.952;6.146;2023-04-16T03:02:23;49.92;;;20.38;;
29908;SDS011;36247;51.952;6.146;2023-04-16T03:04:49;48.60;;;21.45;;
29908;SDS011;36247;51.952;6.146;2023-04-16T03:07:14;44.33;;;20.20;;
29908;SDS011;36247;51.952;6.146;2023-04-16T03:09:42;42.22;;;19.67;;
29908;SDS011;36247;51.952;6.146;2023-04-16T03:12:08;44.40;;;20.67;;
29908;SDS011;36247;51.952;6.146;2023-04-16T03:14:35;46.55;;;21.48;;
29908;SDS011;36247;51.952;6.146;2023-04-16T03:17:01;51.08;;;20.80;;
29908;SDS011;36247;51.952;6.146;2023-04-16T03:19:27;52.35;;;21.95;;
29908;SDS011;36247;51.952;6.146;2023-04-16T03:21:52;52.55;;;22.48;;
29908;SDS011;36247;51.952;6.146;2023-04-16T03:24:19;50.53;;;22.13;;
29908;SDS011;36247;51.952;6.146;2023-04-16T03:26:47;53.60;;;21.80;;
29908;SDS011;36247;51.952;6.146;2023-04-16T03:29:13;48.60;;;21.40;;
29908;SDS011;36247;51.952;6.146;2023-04-16T03:31:38;48.50;;;23.05;;
29908;SDS011;36247;51.952;6.146;2023-04-16T03:34:04;57.90;;;22.60;;
29908;SDS011;36247;51.952;6.146;2023-04-16T03:36:31;55.67;;;24.40;;
29908;SDS011;36247;51.952;6.146;2023-04-16T03:38:57;45.50;;;22.23;;
29908;SDS011;36247;51.952;6.146;2023-04-16T03:41:23;51.40;;;22.88;;
29908;SDS011;36247;51.952;6.146;2023-04-16T03:43:49;53.20;;;23.13;;
29908;SDS011;36247;51.952;6.146;2023-04-16T03:46:14;55.40;;;20.83;;
29908;SDS011;36247;51.952;6.146;2023-04-16T03:48:40;59.03;;;22.27;;
29908;SDS011;36247;51.952;6.146;2023-04-16T03:51:06;56.38;;;23.00;;
29908;SDS011;36247;51.952;6.146;2023-04-16T03:53:33;55.30;;;23.13;;
29908;SDS011;36247;51.952;6.146;2023-04-16T03:55:59;57.22;;;23.80;;
29908;SDS011;36247;51.952;6.146;2023-04-16T03:58:26;51.65;;;22.67;;
29908;SDS011;36247;51.952;6.146;2023-04-16T04:00:52;60.55;;;24.50;;
29908;SDS011;36247;51.952;6.146;2023-04-16T04:03:19;52.40;;;23.00;;
29908;SDS011;36247;51.952;6.146;2023-04-16T04:05:47;54.35;;;22.80;;
29908;SDS011;36247;51.952;6.146;2023-04-16T04:08:17;56.45;;;23.88;;
29908;SDS011;36247;51.952;6.146;2023-04-16T04:10:42;56.40;;;25.15;;
29908;SDS011;36247;51.952;6.146;2023-04-16T04:13:10;60.33;;;25.05;;
29908;SDS011;36247;51.952;6.146;2023-04-16T04:15:36;60.70;;;25.67;;
29908;SDS011;36247;51.952;6.146;2023-04-16T04:18:02;59.63;;;26.55;;
29908;SDS011;36247;51.952;6.146;2023-04-16T04:20:27;72.93;;;25.92;;
29908;SDS011;36247;51.952;6.146;2023-04-16T04:22:53;75.05;;;28.23;;
29908;SDS011;36247;51.952;6.146;2023-04-16T04:25:21;62.85;;;26.58;;
29908;SDS011;36247;51.952;6.146;2023-04-16T04:27:47;64.53;;;25.30;;
29908;SDS011;36247;51.952;6.146;2023-04-16T04:30:13;59.85;;;25.40;;
29908;SDS011;36247;51.952;6.146;2023-04-16T04:32:40;73.18;;;27.98;;
29908;SDS011;36247;51.952;6.146;2023-04-16T04:35:06;67.90;;;27.10;;
29908;SDS011;36247;51.952;6.146;2023-04-16T04:37:33;64.18;;;26.60;;
29908;SDS011;36247;51.952;6.146;2023-04-16T04:40:07;58.85;;;26.10;;
29908;SDS011;36247;51.952;6.146;2023-04-16T04:42:34;68.78;;;26.65;;
29908;SDS011;36247;51.952;6.146;2023-04-16T04:44:59;64.32;;;25.67;;
29908;SDS011;36247;51.952;6.146;2023-04-16T04:47:26;64.25;;;27.02;;
29908;SDS011;36247;51.952;6.146;2023-04-16T04:49:52;63.45;;;27.25;;
29908;SDS011;36247;51.952;6.146;2023-04-16T04:52:18;68.03;;;28.25;;
29908;SDS011;36247;51.952;6.146;2023-04-16T04:54:46;59.83;;;26.52;;
29908;SDS011;36247;51.952;6.146;2023-04-16T04:57:11;63.03;;;26.38;;
29908;SDS011;36247;51.952;6.146;2023-04-16T04:59:38;71.43;;;28.65;;
29908;SDS011;36247;51.952;6.146;2023-04-16T05:02:03;67.30;;;27.20;;
29908;SDS011;36247;51.952;6.146;2023-04-16T05:04:30;74.63;;;26.58;;
29908;SDS011;36247;51.952;6.146;2023-04-16T05:06:57;68.28;;;26.40;;
29908;SDS011;36247;51.952;6.146;2023-04-16T05:09:22;62.47;;;27.05;;
29908;SDS011;36247;51.952;6.146;2023-04-16T05:11:48;73.00;;;28.90;;
29908;SDS011;36247;51.952;6.146;2023-04-16T05:14:13;79.38;;;30.15;;
29908;SDS011;36247;51.952;6.146;2023-04-16T05:16:39;68.63;;;27.30;;
29908;SDS011;36247;51.952;6.146;2023-04-16T05:19:05;66.53;;;28.52;;
29908;SDS011;36247;51.952;6.146;2023-04-16T05:21:31;69.15;;;28.58;;
29908;SDS011;36247;51.952;6.146;2023-04-16T05:23:58;74.88;;;27.83;;
29908;SDS011;36247;51.952;6.146;2023-04-16T05:26:23;69.32;;;28.27;;
29908;SDS011;36247;51.952;6.146;2023-04-16T05:28:49;64.05;;;28.45;;
29908;SDS011;36247;51.952;6.146;2023-04-16T05:31:14;74.03;;;29.73;;
29908;SDS011;36247;51.952;6.146;2023-04-16T05:33:41;66.82;;;30.98;;
29908;SDS011;36247;51.952;6.146;2023-04-16T05:36:08;69.93;;;29.08;;
29908;SDS011;36247;51.952;6.146;2023-04-16T05:38:34;66.70;;;29.05;;
29908;SDS011;36247;51.952;6.146;2023-04-16T05:40:59;74.80;;;30.20;;
29908;SDS011;36247;51.952;6.146;2023-04-16T05:43:26;59.22;;;29.17;;
29908;SDS011;36247;51.952;6.146;2023-04-16T05:45:51;69.13;;;28.27;;
29908;SDS011;36247;51.952;6.146;2023-04-16T05:48:17;60.03;;;27.70;;
29908;SDS011;36247;51.952;6.146;2023-04-16T05:50:44;68.57;;;28.90;;
29908;SDS011;36247;51.952;6.146;2023-04-16T05:53:09;73.75;;;29.33;;
29908;SDS011;36247;51.952;6.146;2023-04-16T05:55:35;66.10;;;28.00;;
29908;SDS011;36247;51.952;6.146;2023-04-16T05:58:01;65.65;;;29.20;;
29908;SDS011;36247;51.952;6.146;2023-04-16T06:00:29;72.10;;;28.00;;
29908;SDS011;36247;51.952;6.146;2023-04-16T06:02:55;72.95;;;30.13;;
29908;SDS011;36247;51.952;6.146;2023-04-16T06:05:20;64.18;;;26.98;;
29908;SDS011;36247;51.952;6.146;2023-04-16T06:07:46;72.82;;;27.35;;
29908;SDS011;36247;51.952;6.146;2023-04-16T06:10:11;53.40;;;24.80;;
29908;SDS011;36247;51.952;6.146;2023-04-16T06:12:37;63.70;;;26.92;;
29908;SDS011;36247;51.952;6.146;2023-04-16T06:15:04;65.70;;;28.10;;
29908;SDS011;36247;51.952;6.146;2023-04-16T06:17:31;76.35;;;28.02;;
29908;SDS011;36247;51.952;6.146;2023-04-16T06:19:57;72.13;;;28.48;;
29908;SDS011;36247;51.952;6.146;2023-04-16T06:22:23;68.65;;;26.55;;
29908;SDS011;36247;51.952;6.146;2023-04-16T06:24:52;76.20;;;28.67;;
29908;SDS011;36247;51.952;6.146;2023-04-16T06:27:17;66.50;;;26.95;;
29908;SDS011;36247;51.952;6.146;2023-04-16T06:29:43;65.97;;;28.92;;
29908;SDS011;36247;51.952;6.146;2023-04-16T06:32:09;69.43;;;29.30;;
29908;SDS011;36247;51.952;6.146;2023-04-16T06:34:36;69.80;;;29.25;;
29908;SDS011;36247;51.952;6.146;2023-04-16T06:37:05;67.97;;;30.60;;
29908;SDS011;36247;51.952;6.146;2023-04-16T06:39:32;66.85;;;28.10;;
29908;SDS011;36247;51.952;6.146;2023-04-16T06:41:58;71.20;;;29.58;;
29908;SDS011;36247;51.952;6.146;2023-04-16T06:44:23;68.53;;;29.73;;
29908;SDS011;36247;51.952;6.146;2023-04-16T06:46:49;64.60;;;28.73;;
29908;SDS011;36247;51.952;6.146;2023-04-16T06:49:15;67.47;;;28.60;;
29908;SDS011;36247;51.952;6.146;2023-04-16T06:51:45;59.03;;;28.48;;
29908;SDS011;36247;51.952;6.146;2023-04-16T06:54:11;62.47;;;27.83;;
29908;SDS011;36247;51.952;6.146;2023-04-16T06:56:36;63.28;;;28.17;;
29908;SDS011;36247;51.952;6.146;2023-04-16T06:59:02;55.65;;;26.35;;
29908;SDS011;36247;51.952;6.146;2023-04-16T07:01:28;65.10;;;28.67;;
29908;SDS011;36247;51.952;6.146;2023-04-16T07:03:57;54.63;;;25.73;;
29908;SDS011;36247;51.952;6.146;2023-04-16T07:06:23;52.15;;;27.33;;
29908;SDS011;36247;51.952;6.146;2023-04-16T07:08:50;54.08;;;26.98;;
29908;SDS011;36247;51.952;6.146;2023-04-16T07:11:16;62.25;;;27.65;;
29908;SDS011;36247;51.952;6.146;2023-04-16T07:13:43;60.00;;;27.20;;
29908;SDS011;36247;51.952;6.146;2023-04-16T07:16:08;55.35;;;27.15;;
29908;SDS011;36247;51.952;6.146;2023-04-16T07:18:34;58.03;;;26.13;;
29908;SDS011;36247;51.952;6.146;2023-04-16T07:21:01;54.00;;;25.80;;
29908;SDS011;36247;51.952;6.146;2023-04-16T07:23:28;51.80;;;27.67;;
29908;SDS011;36247;51.952;6.146;2023-04-16T07:25:54;57.78;;;27.58;;
29908;SDS011;36247;51.952;6.146;2023-04-16T07:28:19;50.70;;;26.13;;
29908;SDS011;36247;51.952;6.146;2023-04-16T07:30:45;51.05;;;25.55;;
29908;SDS011;36247;51.952;6.146;2023-04-16T07:33:10;50.47;;;25.67;;
29908;SDS011;36247;51.952;6.146;2023-04-16T07:35:36;52.45;;;26.88;;
29908;SDS011;36247;51.952;6.146;2023-04-16T07:38:02;51.40;;;27.55;;
29908;SDS011;36247;51.952;6.146;2023-04-16T07:40:28;47.20;;;25.63;;
29908;SDS011;36247;51.952;6.146;2023-04-16T07:42:54;50.33;;;27.58;;
29908;SDS011;36247;51.952;6.146;2023-04-16T07:45:20;54.20;;;26.85;;
29908;SDS011;36247;51.952;6.146;2023-04-16T07:47:45;53.63;;;27.13;;
29908;SDS011;36247;51.952;6.146;2023-04-16T07:50:11;53.33;;;28.33;;
29908;SDS011;36247;51.952;6.146;2023-04-16T07:52:38;53.63;;;29.42;;
29908;SDS011;36247;51.952;6.146;2023-04-16T07:55:06;58.08;;;28.27;;
29908;SDS011;36247;51.952;6.146;2023-04-16T07:57:34;52.08;;;28.20;;
29908;SDS011;36247;51.952;6.146;2023-04-16T08:00:00;57.88;;;28.50;;
29908;SDS011;36247;51.952;6.146;2023-04-16T08:02:39;56.03;;;28.98;;
29908;SDS011;36247;51.952;6.146;2023-04-16T08:05:05;52.42;;;26.55;;
29908;SDS011;36247;51.952;6.146;2023-04-16T08:07:32;59.92;;;30.67;;
29908;SDS011;36247;51.952;6.146;2023-04-16T08:09:58;69.35;;;31.45;;
29908;SDS011;36247;51.952;6.146;2023-04-16T08:12:24;56.63;;;28.83;;
29908;SDS011;36247;51.952;6.146;2023-04-16T08:14:49;57.35;;;30.00;;
29908;SDS011;36247;51.952;6.146;2023-04-16T08:17:15;67.60;;;29.58;;
29908;SDS011;36247;51.952;6.146;2023-04-16T08:19:42;58.50;;;29.85;;
29908;SDS011;36247;51.952;6.146;2023-04-16T08:22:11;67.47;;;30.67;;
29908;SDS011;36247;51.952;6.146;2023-04-16T08:24:38;55.22;;;30.73;;
29908;SDS011;36247;51.952;6.146;2023-04-16T08:27:05;59.42;;;28.70;;
29908;SDS011;36247;51.952;6.146;2023-04-16T08:29:31;59.50;;;30.10;;
29908;SDS011;36247;51.952;6.146;2023-04-16T08:31:58;60.50;;;27.63;;
29908;SDS011;36247;51.952;6.146;2023-04-16T08:34:24;60.05;;;29.33;;
29908;SDS011;36247;51.952;6.146;2023-04-16T08:36:50;55.05;;;26.60;;
29908;SDS011;36247;51.952;6.146;2023-04-16T08:39:17;57.30;;;28.17;;
29908;SDS011;36247;51.952;6.146;2023-04-16T08:41:43;62.03;;;28.35;;
29908;SDS011;36247;51.952;6.146;2023-04-16T08:44:13;68.72;;;29.52;;
29908;SDS011;36247;51.952;6.146;2023-04-16T08:46:50;57.50;;;28.50;;
29908;SDS011;36247;51.952;6.146;2023-04-16T08:49:22;61.78;;;28.75;;
29908;SDS011;36247;51.952;6.146;2023-04-16T08:51:48;67.43;;;31.42;;
29908;SDS011;36247;51.952;6.146;2023-04-16T08:54:26;61.00;;;28.73;;
29908;SDS011;36247;51.952;6.146;2023-04-16T08:56:58;59.28;;;29.33;;
29908;SDS011;36247;51.952;6.146;2023-04-16T09:03:30;67.03;;;29.20;;
29908;SDS011;36247;51.952;6.146;2023-04-16T09:06:09;68.80;;;28.40;;
29908;SDS011;36247;51.952;6.146;2023-04-16T09:12:40;59.67;;;30.25;;
29908;SDS011;36247;51.952;6.146;2023-04-16T09:15:21;67.35;;;30.55;;
29908;SDS011;36247;51.952;6.146;2023-04-16T09:17:47;63.30;;;31.08;;
29908;SDS011;36247;51.952;6.146;2023-04-16T09:20:13;61.08;;;29.73;;
29908;SDS011;36247;51.952;6.146;2023-04-16T09:22:39;66.20;;;27.65;;
29908;SDS011;36247;51.952;6.146;2023-04-16T09:25:05;61.08;;;30.08;;
29908;SDS011;36247;51.952;6.146;2023-04-16T09:27:34;54.53;;;27.83;;
29908;SDS011;36247;51.952;6.146;2023-04-16T09:30:23;58.97;;;28.65;;
29908;SDS011;36247;51.952;6.146;2023-04-16T09:32:49;56.33;;;27.58;;
29908;SDS011;36247;51.952;6.146;2023-04-16T09:35:16;53.40;;;28.52;;
29908;SDS011;36247;51.952;6.146;2023-04-16T09:37:55;55.75;;;28.10;;
29908;SDS011;36247;51.952;6.146;2023-04-16T09:40:25;49.22;;;28.52;;
29908;SDS011;36247;51.952;6.146;2023-04-16T09:42:58;46.58;;;26.05;;
29908;SDS011;36247;51.952;6.146;2023-04-16T09:45:26;51.75;;;26.42;;
29908;SDS011;36247;51.952;6.146;2023-04-16T09:48:01;47.22;;;24.73;;
29908;SDS011;36247;51.952;6.146;2023-04-16T09:50:32;50.78;;;27.23;;
29908;SDS011;36247;51.952;6.146;2023-04-16T09:52:57;47.67;;;27.00;;
29908;SDS011;36247;51.952;6.146;2023-04-16T09:55:28;52.30;;;26.35;;
29908;SDS011;36247;51.952;6.146;2023-04-16T09:57:59;43.33;;;26.10;;
29908;SDS011;36247;51.952;6.146;2023-04-16T10:00:28;45.38;;;26.35;;
29908;SDS011;36247;51.952;6.146;2023-04-16T10:03:05;48.17;;;26.70;;
29908;SDS011;36247;51.952;6.146;2023-04-16T10:05:32;42.65;;;26.25;;
29908;SDS011;36247;51.952;6.146;2023-04-16T10:08:01;44.83;;;26.52;;
29908;SDS011;36247;51.952;6.146;2023-04-16T10:10:28;47.35;;;25.13;;
29908;SDS011;36247;51.952;6.146;2023-04-16T10:12:54;44.67;;;24.60;;
29908;SDS011;36247;51.952;6.146;2023-04-16T10:15:20;42.22;;;24.63;;
29908;SDS011;36247;51.952;6.146;2023-04-16T10:17:46;43.75;;;24.90;;
29908;SDS011;36247;51.952;6.146;2023-04-16T10:20:12;43.75;;;26.63;;
29908;SDS011;36247;51.952;6.146;2023-04-16T10:22:40;42.35;;;25.38;;
29908;SDS011;36247;51.952;6.146;2023-04-16T10:25:06;38.25;;;24.08;;
29908;SDS011;36247;51.952;6.146;2023-04-16T10:27:35;38.85;;;22.23;;
29908;SDS011;36247;51.952;6.146;2023-04-16T10:30:01;39.38;;;24.77;;
29908;SDS011;36247;51.952;6.146;2023-04-16T10:32:28;36.35;;;23.08;;
29908;SDS011;36247;51.952;6.146;2023-04-16T10:34:55;36.72;;;22.42;;
29908;SDS011;36247;51.952;6.146;2023-04-16T10:37:28;40.33;;;23.23;;
29908;SDS011;36247;51.952;6.146;2023-04-16T10:39:56;37.20;;;22.67;;
29908;SDS011;36247;51.952;6.146;2023-04-16T10:42:22;39.33;;;23.92;;
29908;SDS011;36247;51.952;6.146;2023-04-16T10:44:50;39.45;;;23.30;;
29908;SDS011;36247;51.952;6.146;2023-04-16T10:47:15;41.60;;;25.02;;
29908;SDS011;36247;51.952;6.146;2023-04-16T10:49:42;38.42;;;23.50;;
29908;SDS011;36247;51.952;6.146;2023-04-16T10:52:09;39.83;;;22.00;;
29908;SDS011;36247;51.952;6.146;2023-04-16T10:54:36;32.67;;;22.38;;
29908;SDS011;36247;51.952;6.146;2023-04-16T10:57:07;28.15;;;20.30;;
29908;SDS011;36247;51.952;6.146;2023-04-16T10:59:36;32.00;;;20.17;;
29908;SDS011;36247;51.952;6.146;2023-04-16T11:02:12;32.45;;;20.15;;
29908;SDS011;36247;51.952;6.146;2023-04-16T11:04:41;30.23;;;19.60;;
29908;SDS011;36247;51.952;6.146;2023-04-16T11:09:58;32.83;;;20.10;;
29908;SDS011;36247;51.952;6.146;2023-04-16T11:12:37;28.90;;;19.77;;
29908;SDS011;36247;51.952;6.146;2023-04-16T11:15:08;29.40;;;17.98;;
29908;SDS011;36247;51.952;6.146;2023-04-16T11:20:09;27.05;;;19.15;;
29908;SDS011;36247;51.952;6.146;2023-04-16T11:22:43;28.90;;;18.85;;
29908;SDS011;36247;51.952;6.146;2023-04-16T11:25:11;32.80;;;19.77;;
29908;SDS011;36247;51.952;6.146;2023-04-16T11:27:38;28.80;;;18.65;;
29908;SDS011;36247;51.952;6.146;2023-04-16T11:30:05;27.33;;;19.98;;
29908;SDS011;36247;51.952;6.146;2023-04-16T11:32:34;31.60;;;20.02;;
29908;SDS011;36247;51.952;6.146;2023-04-16T11:35:03;27.25;;;18.83;;
29908;SDS011;36247;51.952;6.146;2023-04-16T11:37:37;26.83;;;18.42;;
29908;SDS011;36247;51.952;6.146;2023-04-16T11:40:04;26.80;;;18.58;;
29908;SDS011;36247;51.952;6.146;2023-04-16T11:42:32;31.20;;;20.05;;
29908;SDS011;36247;51.952;6.146;2023-04-16T11:45:02;27.45;;;18.42;;
29908;SDS011;36247;51.952;6.146;2023-04-16T11:47:29;27.23;;;17.23;;
29908;SDS011;36247;51.952;6.146;2023-04-16T11:49:57;26.00;;;17.92;;
29908;SDS011;36247;51.952;6.146;2023-04-16T11:52:43;30.25;;;19.27;;
29908;SDS011;36247;51.952;6.146;2023-04-16T11:55:08;23.75;;;17.25;;
29908;SDS011;36247;51.952;6.146;2023-04-16T11:57:34;28.77;;;18.88;;
29908;SDS011;36247;51.952;6.146;2023-04-16T12:00:00;25.75;;;16.40;;
29908;SDS011;36247;51.952;6.146;2023-04-16T12:05:25;24.65;;;17.40;;
29908;SDS011;36247;51.952;6.146;2023-04-16T12:07:58;26.20;;;17.50;;
29908;SDS011;36247;51.952;6.146;2023-04-16T12:10:27;31.77;;;17.67;;
29908;SDS011;36247;51.952;6.146;2023-04-16T12:13:08;23.58;;;17.25;;
29908;SDS011;36247;51.952;6.146;2023-04-16T12:15:52;29.35;;;17.73;;
29908;SDS011;36247;51.952;6.146;2023-04-16T12:18:20;32.13;;;19.52;;
29908;SDS011;36247;51.952;6.146;2023-04-16T12:20:47;27.33;;;19.10;;
29908;SDS011;36247;51.952;6.146;2023-04-16T12:26:08;29.05;;;19.05;;
29908;SDS011;36247;51.952;6.146;2023-04-16T12:28:35;36.00;;;18.83;;
29908;SDS011;36247;51.952;6.146;2023-04-16T12:31:02;32.28;;;19.20;;
29908;SDS011;36247;51.952;6.146;2023-04-16T12:33:29;34.90;;;19.23;;
29908;SDS011;36247;51.952;6.146;2023-04-16T12:35:55;32.75;;;18.40;;
29908;SDS011;36247;51.952;6.146;2023-04-16T12:38:20;29.83;;;18.73;;
29908;SDS011;36247;51.952;6.146;2023-04-16T12:40:47;32.85;;;19.10;;
29908;SDS011;36247;51.952;6.146;2023-04-16T12:43:12;31.13;;;18.85;;
29908;SDS011;36247;51.952;6.146;2023-04-16T12:45:39;29.83;;;18.50;;
29908;SDS011;36247;51.952;6.146;2023-04-16T12:48:05;29.55;;;18.83;;
29908;SDS011;36247;51.952;6.146;2023-04-16T12:50:32;31.73;;;19.80;;
29908;SDS011;36247;51.952;6.146;2023-04-16T12:52:58;29.65;;;19.20;;
29908;SDS011;36247;51.952;6.146;2023-04-16T12:55:24;34.88;;;20.05;;
29908;SDS011;36247;51.952;6.146;2023-04-16T12:59:56;32.75;;;19.88;;
29908;SDS011;36247;51.952;6.146;2023-04-16T13:02:23;40.25;;;20.75;;
29908;SDS011;36247;51.952;6.146;2023-04-16T13:04:54;34.95;;;19.15;;
29908;SDS011;36247;51.952;6.146;2023-04-16T13:07:21;29.40;;;19.17;;
29908;SDS011;36247;51.952;6.146;2023-04-16T13:09:48;29.98;;;19.67;;
29908;SDS011;36247;51.952;6.146;2023-04-16T13:12:13;30.73;;;18.55;;
29908;SDS011;36247;51.952;6.146;2023-04-16T13:14:39;26.48;;;19.13;;
29908;SDS011;36247;51.952;6.146;2023-04-16T13:17:05;33.47;;;19.27;;
29908;SDS011;36247;51.952;6.146;2023-04-16T13:19:32;35.60;;;19.48;;
29908;SDS011;36247;51.952;6.146;2023-04-16T13:21:58;33.67;;;18.58;;
29908;SDS011;36247;51.952;6.146;2023-04-16T13:24:23;31.73;;;19.30;;
29908;SDS011;36247;51.952;6.146;2023-04-16T13:26:50;39.67;;;20.20;;
29908;SDS011;36247;51.952;6.146;2023-04-16T13:29:20;32.60;;;19.63;;
29908;SDS011;36247;51.952;6.146;2023-04-16T13:31:46;35.15;;;19.25;;
29908;SDS011;36247;51.952;6.146;2023-04-16T13:34:12;33.30;;;19.67;;
29908;SDS011;36247;51.952;6.146;2023-04-16T13:36:38;33.83;;;18.20;;
29908;SDS011;36247;51.952;6.146;2023-04-16T13:39:05;33.20;;;16.83;;
29908;SDS011;36247;51.952;6.146;2023-04-16T13:41:35;32.35;;;17.35;;
29908;SDS011;36247;51.952;6.146;2023-04-16T13:44:02;35.08;;;18.67;;
29908;SDS011;36247;51.952;6.146;2023-04-16T13:46:27;35.45;;;18.88;;
29908;SDS011;36247;51.952;6.146;2023-04-16T13:48:53;32.22;;;17.63;;
29908;SDS011;36247;51.952;6.146;2023-04-16T13:51:20;30.50;;;18.75;;
29908;SDS011;36247;51.952;6.146;2023-04-16T13:53:46;38.42;;;18.25;;
29908;SDS011;36247;51.952;6.146;2023-04-16T13:56:11;34.20;;;18.10;;
29908;SDS011;36247;51.952;6.146;2023-04-16T13:58:37;32.28;;;18.27;;
29908;SDS011;36247;51.952;6.146;2023-04-16T14:01:05;35.63;;;17.90;;
29908;SDS011;36247;51.952;6.146;2023-04-16T14:03:32;32.58;;;17.58;;
29908;SDS011;36247;51.952;6.146;2023-04-16T14:06:03;29.85;;;16.83;;
29908;SDS011;36247;51.952;6.146;2023-04-16T14:08:31;28.25;;;17.00;;
29908;SDS011;36247;51.952;6.146;2023-04-16T14:10:57;29.88;;;17.00;;
29908;SDS011;36247;51.952;6.146;2023-04-16T14:13:23;30.83;;;17.50;;
29908;SDS011;36247;51.952;6.146;2023-04-16T14:15:49;30.33;;;16.73;;
29908;SDS011;36247;51.952;6.146;2023-04-16T14:18:17;32.30;;;16.90;;
29908;SDS011;36247;51.952;6.146;2023-04-16T14:20:43;35.33;;;17.10;;
29908;SDS011;36247;51.952;6.146;2023-04-16T14:23:09;26.08;;;16.63;;
29908;SDS011;36247;51.952;6.146;2023-04-16T14:25:36;34.13;;;17.33;;
29908;SDS011;36247;51.952;6.146;2023-04-16T14:28:02;27.35;;;16.55;;
29908;SDS011;36247;51.952;6.146;2023-04-16T14:30:28;27.45;;;17.70;;
29908;SDS011;36247;51.952;6.146;2023-04-16T14:32:54;28.52;;;17.60;;
29908;SDS011;36247;51.952;6.146;2023-04-16T14:35:20;26.88;;;15.88;;
29908;SDS011;36247;51.952;6.146;2023-04-16T14:37:45;32.72;;;17.48;;
29908;SDS011;36247;51.952;6.146;2023-04-16T14:40:11;27.63;;;17.30;;
29908;SDS011;36247;51.952;6.146;2023-04-16T14:42:37;28.77;;;17.38;;